sensor_id;sensor_type;location;lat;lon;timestamp;P1;durP1;ratioP1;P2;durP2;ratioP2
7306;SDS011;3694;48.732;9.248;2022-10-16T00:01:46;2.03;;;1.83;;
7306;SDS011;3694;48.732;9.248;2022-10-16T00:04:11;4.87;;;2.07;;
7306;SDS011;3694;48.732;9.248;2022-10-16T00:06:38;5.57;;;2.30;;
7306;SDS011;3694;48.732;9.248;2022-10-16T00:09:04;2.30;;;2.10;;
7306;SDS011;3694;48.732;9.248;2022-10-16T00:11:32;3.50;;;2.40;;
7306;SDS011;3694;48.732;9.248;2022-10-16T00:13:59;2.70;;;2.50;;
7306;SDS011;3694;48.732;9.248;2022-10-16T00:16:26;2.20;;;2.00;;
7306;SDS011;3694;48.732;9.248;2022-10-16T00:18:53;3.80;;;2.13;;
7306;SDS011;3694;48.732;9.248;2022-10-16T00:21:20;3.30;;;2.00;;
7306;SDS011;3694;48.732;9.248;2022-10-16T00:23:54;2.93;;;2.10;;
7306;SDS011;3694;48.732;9.248;2022-10-16T00:26:25;3.80;;;2.50;;
7306;SDS011;3694;48.732;9.248;2022-10-16T00:28:51;5.97;;;2.80;;
7306;SDS011;3694;48.732;9.248;2022-10-16T00:31:18;3.10;;;2.80;;
7306;SDS011;3694;48.732;9.248;2022-10-16T00:33:45;3.90;;;3.30;;
7306;SDS011;3694;48.732;9.248;2022-10-16T00:36:11;3.20;;;2.90;;
7306;SDS011;3694;48.732;9.248;2022-10-16T00:38:39;4.10;;;3.20;;
7306;SDS011;3694;48.732;9.248;2022-10-16T00:41:05;6.00;;;3.03;;
7306;SDS011;3694;48.732;9.248;2022-10-16T00:46:19;6.10;;;3.30;;
7306;SDS011;3694;48.732;9.248;2022-10-16T00:51:39;5.30;;;3.50;;
7306;SDS011;3694;48.732;9.248;2022-10-16T00:54:15;3.60;;;3.30;;
7306;SDS011;3694;48.732;9.248;2022-10-16T00:56:47;6.83;;;2.90;;
7306;SDS011;3694;48.732;9.248;2022-10-16T00:59:15;4.80;;;2.93;;
7306;SDS011;3694;48.732;9.248;2022-10-16T01:01:44;5.97;;;3.20;;
7306;SDS011;3694;48.732;9.248;2022-10-16T01:04:09;3.77;;;3.27;;
7306;SDS011;3694;48.732;9.248;2022-10-16T01:09:17;3.80;;;3.07;;
7306;SDS011;3694;48.732;9.248;2022-10-16T01:12:10;6.77;;;3.70;;
7306;SDS011;3694;48.732;9.248;2022-10-16T01:15:06;3.50;;;3.20;;
7306;SDS011;3694;48.732;9.248;2022-10-16T01:17:45;4.07;;;3.63;;
7306;SDS011;3694;48.732;9.248;2022-10-16T01:23:03;4.97;;;3.33;;
7306;SDS011;3694;48.732;9.248;2022-10-16T01:28:25;5.40;;;3.13;;
7306;SDS011;3694;48.732;9.248;2022-10-16T01:30:57;8.63;;;3.43;;
7306;SDS011;3694;48.732;9.248;2022-10-16T01:33:26;7.30;;;3.57;;
7306;SDS011;3694;48.732;9.248;2022-10-16T01:35:55;5.73;;;3.43;;
7306;SDS011;3694;48.732;9.248;2022-10-16T01:38:37;4.40;;;3.33;;
7306;SDS011;3694;48.732;9.248;2022-10-16T01:41:08;3.57;;;3.20;;
7306;SDS011;3694;48.732;9.248;2022-10-16T01:43:43;5.27;;;3.07;;
7306;SDS011;3694;48.732;9.248;2022-10-16T01:46:11;5.43;;;3.10;;
7306;SDS011;3694;48.732;9.248;2022-10-16T01:48:40;3.47;;;3.17;;
7306;SDS011;3694;48.732;9.248;2022-10-16T01:51:07;3.37;;;3.07;;
7306;SDS011;3694;48.732;9.248;2022-10-16T01:53:37;4.07;;;3.40;;
7306;SDS011;3694;48.732;9.248;2022-10-16T01:56:05;3.60;;;3.30;;
7306;SDS011;3694;48.732;9.248;2022-10-16T01:58:35;4.03;;;3.50;;
7306;SDS011;3694;48.732;9.248;2022-10-16T02:01:05;4.57;;;3.10;;
7306;SDS011;3694;48.732;9.248;2022-10-16T02:03:34;3.57;;;3.17;;
7306;SDS011;3694;48.732;9.248;2022-10-16T02:06:00;3.50;;;3.10;;
7306;SDS011;3694;48.732;9.248;2022-10-16T02:08:28;3.30;;;3.00;;
7306;SDS011;3694;48.732;9.248;2022-10-16T02:10:56;4.00;;;3.40;;
7306;SDS011;3694;48.732;9.248;2022-10-16T02:13:23;3.30;;;3.00;;
7306;SDS011;3694;48.732;9.248;2022-10-16T02:15:54;3.93;;;3.10;;
7306;SDS011;3694;48.732;9.248;2022-10-16T02:18:20;3.47;;;3.00;;
7306;SDS011;3694;48.732;9.248;2022-10-16T02:23:26;4.60;;;3.13;;
7306;SDS011;3694;48.732;9.248;2022-10-16T02:26:01;5.70;;;3.20;;
7306;SDS011;3694;48.732;9.248;2022-10-16T02:28:42;4.13;;;3.10;;
7306;SDS011;3694;48.732;9.248;2022-10-16T02:31:12;5.00;;;3.30;;
7306;SDS011;3694;48.732;9.248;2022-10-16T02:33:43;3.40;;;3.07;;
7306;SDS011;3694;48.732;9.248;2022-10-16T02:36:09;4.80;;;3.47;;
7306;SDS011;3694;48.732;9.248;2022-10-16T02:38:35;6.77;;;3.50;;
7306;SDS011;3694;48.732;9.248;2022-10-16T02:41:02;4.13;;;3.80;;
7306;SDS011;3694;48.732;9.248;2022-10-16T02:43:29;7.77;;;3.83;;
7306;SDS011;3694;48.732;9.248;2022-10-16T02:45:54;6.60;;;4.00;;
7306;SDS011;3694;48.732;9.248;2022-10-16T02:48:20;5.27;;;4.13;;
7306;SDS011;3694;48.732;9.248;2022-10-16T02:50:46;7.07;;;3.67;;
7306;SDS011;3694;48.732;9.248;2022-10-16T02:53:11;5.17;;;3.90;;
7306;SDS011;3694;48.732;9.248;2022-10-16T02:55:37;5.80;;;3.80;;
7306;SDS011;3694;48.732;9.248;2022-10-16T02:58:02;5.30;;;4.00;;
7306;SDS011;3694;48.732;9.248;2022-10-16T03:00:28;4.93;;;4.20;;
7306;SDS011;3694;48.732;9.248;2022-10-16T03:02:53;4.60;;;4.07;;
7306;SDS011;3694;48.732;9.248;2022-10-16T03:05:19;4.93;;;4.20;;
7306;SDS011;3694;48.732;9.248;2022-10-16T03:07:44;5.80;;;3.90;;
7306;SDS011;3694;48.732;9.248;2022-10-16T03:10:10;5.20;;;3.83;;
7306;SDS011;3694;48.732;9.248;2022-10-16T03:12:36;5.93;;;4.70;;
7306;SDS011;3694;48.732;9.248;2022-10-16T03:15:01;8.00;;;5.17;;
7306;SDS011;3694;48.732;9.248;2022-10-16T03:17:27;5.07;;;4.57;;
7306;SDS011;3694;48.732;9.248;2022-10-16T03:19:53;8.30;;;4.50;;
7306;SDS011;3694;48.732;9.248;2022-10-16T03:22:18;4.90;;;4.40;;
7306;SDS011;3694;48.732;9.248;2022-10-16T03:24:44;4.90;;;4.10;;
7306;SDS011;3694;48.732;9.248;2022-10-16T03:27:10;7.70;;;4.17;;
7306;SDS011;3694;48.732;9.248;2022-10-16T03:29:35;4.93;;;4.50;;
7306;SDS011;3694;48.732;9.248;2022-10-16T03:32:01;6.10;;;4.63;;
7306;SDS011;3694;48.732;9.248;2022-10-16T03:34:26;6.73;;;4.40;;
7306;SDS011;3694;48.732;9.248;2022-10-16T03:36:52;4.87;;;4.23;;
7306;SDS011;3694;48.732;9.248;2022-10-16T03:39:18;6.27;;;4.80;;
7306;SDS011;3694;48.732;9.248;2022-10-16T03:41:44;4.97;;;4.40;;
7306;SDS011;3694;48.732;9.248;2022-10-16T03:44:11;5.87;;;4.17;;
7306;SDS011;3694;48.732;9.248;2022-10-16T03:46:37;4.70;;;3.90;;
7306;SDS011;3694;48.732;9.248;2022-10-16T03:49:02;6.83;;;4.40;;
7306;SDS011;3694;48.732;9.248;2022-10-16T03:51:28;7.43;;;3.97;;
7306;SDS011;3694;48.732;9.248;2022-10-16T03:53:54;6.33;;;4.30;;
7306;SDS011;3694;48.732;9.248;2022-10-16T03:56:19;6.40;;;4.23;;
7306;SDS011;3694;48.732;9.248;2022-10-16T03:58:45;4.53;;;4.10;;
7306;SDS011;3694;48.732;9.248;2022-10-16T04:01:10;7.90;;;3.93;;
7306;SDS011;3694;48.732;9.248;2022-10-16T04:03:36;9.20;;;4.47;;
7306;SDS011;3694;48.732;9.248;2022-10-16T04:06:01;4.80;;;3.83;;
7306;SDS011;3694;48.732;9.248;2022-10-16T04:08:27;5.07;;;4.20;;
7306;SDS011;3694;48.732;9.248;2022-10-16T04:10:52;6.40;;;4.33;;
7306;SDS011;3694;48.732;9.248;2022-10-16T04:13:18;4.90;;;4.17;;
7306;SDS011;3694;48.732;9.248;2022-10-16T04:15:44;4.33;;;3.83;;
7306;SDS011;3694;48.732;9.248;2022-10-16T04:18:10;3.80;;;3.50;;
7306;SDS011;3694;48.732;9.248;2022-10-16T04:20:36;4.90;;;3.90;;
7306;SDS011;3694;48.732;9.248;2022-10-16T04:23:02;3.80;;;3.50;;
7306;SDS011;3694;48.732;9.248;2022-10-16T04:25:28;4.93;;;3.93;;
7306;SDS011;3694;48.732;9.248;2022-10-16T04:27:53;5.57;;;4.13;;
7306;SDS011;3694;48.732;9.248;2022-10-16T04:30:20;4.30;;;3.90;;
7306;SDS011;3694;48.732;9.248;2022-10-16T04:32:52;5.77;;;3.90;;
7306;SDS011;3694;48.732;9.248;2022-10-16T04:35:18;5.80;;;4.20;;
7306;SDS011;3694;48.732;9.248;2022-10-16T04:37:45;6.57;;;3.93;;
7306;SDS011;3694;48.732;9.248;2022-10-16T04:40:11;7.67;;;4.07;;
7306;SDS011;3694;48.732;9.248;2022-10-16T04:42:36;5.37;;;3.80;;
7306;SDS011;3694;48.732;9.248;2022-10-16T04:45:02;5.90;;;3.90;;
7306;SDS011;3694;48.732;9.248;2022-10-16T04:47:29;7.03;;;4.20;;
7306;SDS011;3694;48.732;9.248;2022-10-16T04:49:54;4.33;;;3.90;;
7306;SDS011;3694;48.732;9.248;2022-10-16T04:52:20;5.03;;;3.97;;
7306;SDS011;3694;48.732;9.248;2022-10-16T04:54:46;4.33;;;3.93;;
7306;SDS011;3694;48.732;9.248;2022-10-16T04:57:12;8.80;;;4.60;;
7306;SDS011;3694;48.732;9.248;2022-10-16T04:59:37;4.57;;;3.90;;
7306;SDS011;3694;48.732;9.248;2022-10-16T05:02:03;7.67;;;4.30;;
7306;SDS011;3694;48.732;9.248;2022-10-16T05:04:28;4.83;;;4.43;;
7306;SDS011;3694;48.732;9.248;2022-10-16T05:06:54;5.20;;;4.70;;
7306;SDS011;3694;48.732;9.248;2022-10-16T05:09:19;5.53;;;4.23;;
7306;SDS011;3694;48.732;9.248;2022-10-16T05:11:45;6.53;;;4.70;;
7306;SDS011;3694;48.732;9.248;2022-10-16T05:14:11;7.40;;;5.13;;
7306;SDS011;3694;48.732;9.248;2022-10-16T05:16:37;7.00;;;5.17;;
7306;SDS011;3694;48.732;9.248;2022-10-16T05:19:02;7.40;;;5.23;;
7306;SDS011;3694;48.732;9.248;2022-10-16T05:21:28;5.40;;;4.90;;
7306;SDS011;3694;48.732;9.248;2022-10-16T05:23:53;6.80;;;5.10;;
7306;SDS011;3694;48.732;9.248;2022-10-16T05:26:20;8.20;;;4.90;;
7306;SDS011;3694;48.732;9.248;2022-10-16T05:28:45;6.20;;;4.97;;
7306;SDS011;3694;48.732;9.248;2022-10-16T05:31:11;5.33;;;4.33;;
7306;SDS011;3694;48.732;9.248;2022-10-16T05:33:36;5.90;;;4.90;;
7306;SDS011;3694;48.732;9.248;2022-10-16T05:36:02;6.57;;;4.73;;
7306;SDS011;3694;48.732;9.248;2022-10-16T05:38:29;6.87;;;4.67;;
7306;SDS011;3694;48.732;9.248;2022-10-16T05:40:55;9.07;;;4.67;;
7306;SDS011;3694;48.732;9.248;2022-10-16T05:43:21;6.20;;;4.50;;
7306;SDS011;3694;48.732;9.248;2022-10-16T05:45:53;6.63;;;4.73;;
7306;SDS011;3694;48.732;9.248;2022-10-16T05:48:30;5.43;;;4.60;;
7306;SDS011;3694;48.732;9.248;2022-10-16T05:51:04;6.27;;;4.87;;
7306;SDS011;3694;48.732;9.248;2022-10-16T05:53:32;5.70;;;4.70;;
7306;SDS011;3694;48.732;9.248;2022-10-16T05:55:59;7.40;;;4.97;;
7306;SDS011;3694;48.732;9.248;2022-10-16T05:58:25;5.43;;;4.90;;
7306;SDS011;3694;48.732;9.248;2022-10-16T06:03:21;5.60;;;5.10;;
7306;SDS011;3694;48.732;9.248;2022-10-16T06:05:47;6.03;;;5.43;;
7306;SDS011;3694;48.732;9.248;2022-10-16T06:08:12;6.30;;;4.93;;
7306;SDS011;3694;48.732;9.248;2022-10-16T06:10:38;7.97;;;5.80;;
7306;SDS011;3694;48.732;9.248;2022-10-16T06:13:03;8.83;;;5.00;;
7306;SDS011;3694;48.732;9.248;2022-10-16T06:15:29;6.17;;;5.03;;
7306;SDS011;3694;48.732;9.248;2022-10-16T06:17:54;5.53;;;4.67;;
7306;SDS011;3694;48.732;9.248;2022-10-16T06:20:20;5.40;;;4.80;;
7306;SDS011;3694;48.732;9.248;2022-10-16T06:22:45;5.63;;;3.90;;
7306;SDS011;3694;48.732;9.248;2022-10-16T06:25:11;7.53;;;4.67;;
7306;SDS011;3694;48.732;9.248;2022-10-16T06:27:39;4.37;;;3.97;;
7306;SDS011;3694;48.732;9.248;2022-10-16T06:30:05;4.33;;;4.03;;
7306;SDS011;3694;48.732;9.248;2022-10-16T06:32:32;3.80;;;3.40;;
7306;SDS011;3694;48.732;9.248;2022-10-16T06:34:57;5.80;;;3.87;;
7306;SDS011;3694;48.732;9.248;2022-10-16T06:37:23;7.13;;;4.70;;
7306;SDS011;3694;48.732;9.248;2022-10-16T06:39:49;5.10;;;3.70;;
7306;SDS011;3694;48.732;9.248;2022-10-16T06:42:17;3.87;;;3.37;;
7306;SDS011;3694;48.732;9.248;2022-10-16T06:44:42;3.90;;;3.23;;
7306;SDS011;3694;48.732;9.248;2022-10-16T06:47:08;4.50;;;4.10;;
7306;SDS011;3694;48.732;9.248;2022-10-16T06:49:34;3.77;;;3.10;;
7306;SDS011;3694;48.732;9.248;2022-10-16T06:52:00;4.10;;;2.80;;
7306;SDS011;3694;48.732;9.248;2022-10-16T06:54:26;4.17;;;3.10;;
7306;SDS011;3694;48.732;9.248;2022-10-16T06:56:52;3.73;;;2.93;;
7306;SDS011;3694;48.732;9.248;2022-10-16T06:59:19;2.80;;;2.10;;
7306;SDS011;3694;48.732;9.248;2022-10-16T07:01:45;5.63;;;2.03;;
7306;SDS011;3694;48.732;9.248;2022-10-16T07:04:11;3.37;;;2.30;;
7306;SDS011;3694;48.732;9.248;2022-10-16T07:06:36;2.33;;;2.10;;
7306;SDS011;3694;48.732;9.248;2022-10-16T07:09:03;2.97;;;1.90;;
7306;SDS011;3694;48.732;9.248;2022-10-16T07:11:30;2.30;;;1.70;;
7306;SDS011;3694;48.732;9.248;2022-10-16T07:13:55;4.37;;;2.13;;
7306;SDS011;3694;48.732;9.248;2022-10-16T07:16:22;2.93;;;1.73;;
7306;SDS011;3694;48.732;9.248;2022-10-16T07:18:49;4.63;;;2.17;;
7306;SDS011;3694;48.732;9.248;2022-10-16T07:21:17;1.73;;;1.63;;
7306;SDS011;3694;48.732;9.248;2022-10-16T07:23:45;1.70;;;1.60;;
7306;SDS011;3694;48.732;9.248;2022-10-16T07:26:14;3.47;;;1.87;;
7306;SDS011;3694;48.732;9.248;2022-10-16T07:28:40;3.67;;;1.87;;
7306;SDS011;3694;48.732;9.248;2022-10-16T07:31:09;2.33;;;1.83;;
7306;SDS011;3694;48.732;9.248;2022-10-16T07:33:36;4.60;;;2.23;;
7306;SDS011;3694;48.732;9.248;2022-10-16T07:36:03;2.77;;;2.20;;
7306;SDS011;3694;48.732;9.248;2022-10-16T07:38:29;3.90;;;2.33;;
7306;SDS011;3694;48.732;9.248;2022-10-16T07:40:55;3.30;;;2.23;;
7306;SDS011;3694;48.732;9.248;2022-10-16T07:43:25;4.00;;;2.80;;
7306;SDS011;3694;48.732;9.248;2022-10-16T07:45:51;3.97;;;2.90;;
7306;SDS011;3694;48.732;9.248;2022-10-16T07:48:17;6.07;;;2.33;;
7306;SDS011;3694;48.732;9.248;2022-10-16T07:50:43;4.10;;;2.50;;
7306;SDS011;3694;48.732;9.248;2022-10-16T07:53:09;2.90;;;2.00;;
7306;SDS011;3694;48.732;9.248;2022-10-16T07:55:36;2.30;;;2.10;;
7306;SDS011;3694;48.732;9.248;2022-10-16T07:58:02;2.67;;;1.73;;
7306;SDS011;3694;48.732;9.248;2022-10-16T08:00:27;2.80;;;1.80;;
7306;SDS011;3694;48.732;9.248;2022-10-16T08:02:53;4.30;;;1.73;;
7306;SDS011;3694;48.732;9.248;2022-10-16T08:05:18;2.07;;;1.90;;
7306;SDS011;3694;48.732;9.248;2022-10-16T08:07:48;3.87;;;1.90;;
7306;SDS011;3694;48.732;9.248;2022-10-16T08:10:15;1.97;;;1.77;;
7306;SDS011;3694;48.732;9.248;2022-10-16T08:12:43;3.17;;;1.60;;
7306;SDS011;3694;48.732;9.248;2022-10-16T08:15:08;4.20;;;2.37;;
7306;SDS011;3694;48.732;9.248;2022-10-16T08:17:35;2.87;;;1.80;;
7306;SDS011;3694;48.732;9.248;2022-10-16T08:20:00;2.97;;;1.83;;
7306;SDS011;3694;48.732;9.248;2022-10-16T08:22:26;5.80;;;1.87;;
7306;SDS011;3694;48.732;9.248;2022-10-16T08:24:52;1.80;;;1.63;;
7306;SDS011;3694;48.732;9.248;2022-10-16T08:27:17;3.07;;;1.80;;
7306;SDS011;3694;48.732;9.248;2022-10-16T08:29:43;2.73;;;2.47;;
7306;SDS011;3694;48.732;9.248;2022-10-16T08:32:09;3.53;;;2.10;;
7306;SDS011;3694;48.732;9.248;2022-10-16T08:34:34;2.43;;;1.70;;
7306;SDS011;3694;48.732;9.248;2022-10-16T08:37:00;3.40;;;1.60;;
7306;SDS011;3694;48.732;9.248;2022-10-16T08:39:25;4.20;;;1.70;;
7306;SDS011;3694;48.732;9.248;2022-10-16T08:42:04;2.07;;;1.87;;
7306;SDS011;3694;48.732;9.248;2022-10-16T08:47:55;3.67;;;1.97;;
7306;SDS011;3694;48.732;9.248;2022-10-16T08:50:36;3.47;;;1.60;;
7306;SDS011;3694;48.732;9.248;2022-10-16T08:53:03;1.80;;;1.53;;
7306;SDS011;3694;48.732;9.248;2022-10-16T08:55:33;4.20;;;1.70;;
7306;SDS011;3694;48.732;9.248;2022-10-16T08:58:19;2.37;;;1.90;;
7306;SDS011;3694;48.732;9.248;2022-10-16T09:00:48;2.83;;;1.67;;
7306;SDS011;3694;48.732;9.248;2022-10-16T09:06:11;2.90;;;1.70;;
7306;SDS011;3694;48.732;9.248;2022-10-16T09:08:59;1.83;;;1.70;;
7306;SDS011;3694;48.732;9.248;2022-10-16T09:11:56;4.07;;;1.70;;
7306;SDS011;3694;48.732;9.248;2022-10-16T09:14:40;2.43;;;1.60;;
7306;SDS011;3694;48.732;9.248;2022-10-16T09:23:15;1.80;;;1.40;;
7306;SDS011;3694;48.732;9.248;2022-10-16T09:25:48;3.30;;;1.67;;
7306;SDS011;3694;48.732;9.248;2022-10-16T09:28:15;2.40;;;1.40;;
7306;SDS011;3694;48.732;9.248;2022-10-16T09:30:41;3.33;;;1.40;;
7306;SDS011;3694;48.732;9.248;2022-10-16T09:33:07;2.53;;;1.50;;
7306;SDS011;3694;48.732;9.248;2022-10-16T09:35:39;1.83;;;1.00;;
7306;SDS011;3694;48.732;9.248;2022-10-16T09:40:59;2.70;;;1.50;;
7306;SDS011;3694;48.732;9.248;2022-10-16T09:46:01;2.50;;;1.57;;
7306;SDS011;3694;48.732;9.248;2022-10-16T09:48:30;6.20;;;1.83;;
7306;SDS011;3694;48.732;9.248;2022-10-16T09:51:00;3.30;;;1.97;;
7306;SDS011;3694;48.732;9.248;2022-10-16T09:53:40;3.93;;;1.77;;
7306;SDS011;3694;48.732;9.248;2022-10-16T09:56:09;4.60;;;1.90;;
7306;SDS011;3694;48.732;9.248;2022-10-16T09:58:41;5.93;;;2.63;;
7306;SDS011;3694;48.732;9.248;2022-10-16T10:01:11;4.13;;;1.80;;
7306;SDS011;3694;48.732;9.248;2022-10-16T10:03:39;4.03;;;1.70;;
7306;SDS011;3694;48.732;9.248;2022-10-16T10:06:15;17.20;;;8.47;;
7306;SDS011;3694;48.732;9.248;2022-10-16T10:09:00;2.90;;;1.10;;
7306;SDS011;3694;48.732;9.248;2022-10-16T10:14:30;1.83;;;1.00;;
7306;SDS011;3694;48.732;9.248;2022-10-16T10:17:46;3.87;;;1.30;;
7306;SDS011;3694;48.732;9.248;2022-10-16T10:19:53;4.23;;;1.30;;
7306;SDS011;3694;48.732;9.248;2022-10-16T10:22:30;2.43;;;1.60;;
7306;SDS011;3694;48.732;9.248;2022-10-16T10:27:45;0.90;;;0.90;;
7306;SDS011;3694;48.732;9.248;2022-10-16T10:36:41;1.23;;;1.10;;
7306;SDS011;3694;48.732;9.248;2022-10-16T10:44:47;4.13;;;1.63;;
7306;SDS011;3694;48.732;9.248;2022-10-16T10:47:37;1.47;;;1.10;;
7306;SDS011;3694;48.732;9.248;2022-10-16T10:50:20;0.90;;;0.90;;
7306;SDS011;3694;48.732;9.248;2022-10-16T10:55:44;2.03;;;0.87;;
7306;SDS011;3694;48.732;9.248;2022-10-16T11:01:07;2.50;;;0.90;;
7306;SDS011;3694;48.732;9.248;2022-10-16T11:06:30;1.50;;;1.00;;
7306;SDS011;3694;48.732;9.248;2022-10-16T11:09:12;2.17;;;1.30;;
7306;SDS011;3694;48.732;9.248;2022-10-16T11:11:59;4.60;;;3.83;;
7306;SDS011;3694;48.732;9.248;2022-10-16T11:14:49;3.40;;;1.27;;
7306;SDS011;3694;48.732;9.248;2022-10-16T11:17:38;3.00;;;1.13;;
7306;SDS011;3694;48.732;9.248;2022-10-16T11:20:12;1.53;;;1.30;;
7306;SDS011;3694;48.732;9.248;2022-10-16T11:22:42;1.67;;;0.90;;
7306;SDS011;3694;48.732;9.248;2022-10-16T11:25:19;1.43;;;0.90;;
7306;SDS011;3694;48.732;9.248;2022-10-16T11:27:58;1.50;;;1.13;;
7306;SDS011;3694;48.732;9.248;2022-10-16T11:30:38;2.37;;;1.17;;
7306;SDS011;3694;48.732;9.248;2022-10-16T11:36:10;6.00;;;2.90;;
7306;SDS011;3694;48.732;9.248;2022-10-16T11:38:55;3.03;;;1.10;;
7306;SDS011;3694;48.732;9.248;2022-10-16T11:44:18;1.87;;;1.60;;
7306;SDS011;3694;48.732;9.248;2022-10-16T11:47:07;2.00;;;1.10;;
7306;SDS011;3694;48.732;9.248;2022-10-16T11:49:46;1.10;;;1.07;;
7306;SDS011;3694;48.732;9.248;2022-10-16T11:52:17;2.80;;;1.03;;
7306;SDS011;3694;48.732;9.248;2022-10-16T11:55:14;1.27;;;1.17;;
7306;SDS011;3694;48.732;9.248;2022-10-16T11:57:51;1.33;;;1.23;;
7306;SDS011;3694;48.732;9.248;2022-10-16T12:00:28;2.63;;;1.00;;
7306;SDS011;3694;48.732;9.248;2022-10-16T12:08:44;1.97;;;1.00;;
7306;SDS011;3694;48.732;9.248;2022-10-16T12:14:05;1.20;;;1.10;;
7306;SDS011;3694;48.732;9.248;2022-10-16T12:16:55;2.40;;;1.20;;
7306;SDS011;3694;48.732;9.248;2022-10-16T12:19:24;1.67;;;0.93;;
7306;SDS011;3694;48.732;9.248;2022-10-16T12:21:52;3.83;;;1.07;;
7306;SDS011;3694;48.732;9.248;2022-10-16T12:24:21;2.37;;;1.13;;
7306;SDS011;3694;48.732;9.248;2022-10-16T12:26:57;1.20;;;1.10;;
7306;SDS011;3694;48.732;9.248;2022-10-16T12:29:29;1.90;;;0.90;;
7306;SDS011;3694;48.732;9.248;2022-10-16T12:32:01;2.87;;;0.93;;
7306;SDS011;3694;48.732;9.248;2022-10-16T12:34:39;1.97;;;1.20;;
7306;SDS011;3694;48.732;9.248;2022-10-16T12:39:39;1.50;;;1.10;;
7306;SDS011;3694;48.732;9.248;2022-10-16T12:42:18;3.07;;;1.10;;
7306;SDS011;3694;48.732;9.248;2022-10-16T12:44:56;2.07;;;1.37;;
7306;SDS011;3694;48.732;9.248;2022-10-16T12:47:23;2.23;;;1.03;;
7306;SDS011;3694;48.732;9.248;2022-10-16T12:49:55;1.03;;;1.00;;
7306;SDS011;3694;48.732;9.248;2022-10-16T12:52:37;3.30;;;1.27;;
7306;SDS011;3694;48.732;9.248;2022-10-16T12:55:03;1.60;;;1.50;;
7306;SDS011;3694;48.732;9.248;2022-10-16T12:57:34;2.37;;;1.17;;
7306;SDS011;3694;48.732;9.248;2022-10-16T13:00:11;1.70;;;1.27;;
7306;SDS011;3694;48.732;9.248;2022-10-16T13:03:11;4.10;;;1.00;;
7306;SDS011;3694;48.732;9.248;2022-10-16T13:09:12;2.33;;;1.00;;
7306;SDS011;3694;48.732;9.248;2022-10-16T13:17:31;2.27;;;1.00;;
7306;SDS011;3694;48.732;9.248;2022-10-16T13:20:11;3.83;;;1.50;;
7306;SDS011;3694;48.732;9.248;2022-10-16T13:28:06;1.70;;;1.20;;
7306;SDS011;3694;48.732;9.248;2022-10-16T13:30:40;2.87;;;1.03;;
7306;SDS011;3694;48.732;9.248;2022-10-16T13:33:17;0.97;;;0.80;;
7306;SDS011;3694;48.732;9.248;2022-10-16T13:35:55;1.90;;;0.90;;
7306;SDS011;3694;48.732;9.248;2022-10-16T13:38:22;1.70;;;1.10;;
7306;SDS011;3694;48.732;9.248;2022-10-16T13:41:00;2.30;;;1.03;;
7306;SDS011;3694;48.732;9.248;2022-10-16T13:43:34;3.23;;;1.30;;
7306;SDS011;3694;48.732;9.248;2022-10-16T13:46:05;3.13;;;1.20;;
7306;SDS011;3694;48.732;9.248;2022-10-16T13:48:36;1.37;;;1.20;;
7306;SDS011;3694;48.732;9.248;2022-10-16T13:53:38;3.27;;;1.30;;
7306;SDS011;3694;48.732;9.248;2022-10-16T13:56:05;3.37;;;1.43;;
7306;SDS011;3694;48.732;9.248;2022-10-16T13:58:38;2.13;;;1.33;;
7306;SDS011;3694;48.732;9.248;2022-10-16T14:01:05;1.50;;;1.20;;
7306;SDS011;3694;48.732;9.248;2022-10-16T14:03:51;2.20;;;1.30;;
7306;SDS011;3694;48.732;9.248;2022-10-16T14:06:18;2.10;;;1.47;;
7306;SDS011;3694;48.732;9.248;2022-10-16T14:11:50;4.17;;;1.67;;
7306;SDS011;3694;48.732;9.248;2022-10-16T14:14:22;3.60;;;1.40;;
7306;SDS011;3694;48.732;9.248;2022-10-16T14:16:48;3.13;;;1.60;;
7306;SDS011;3694;48.732;9.248;2022-10-16T14:19:27;2.67;;;1.40;;
7306;SDS011;3694;48.732;9.248;2022-10-16T14:21:54;2.27;;;1.30;;
7306;SDS011;3694;48.732;9.248;2022-10-16T14:24:31;2.70;;;1.30;;
7306;SDS011;3694;48.732;9.248;2022-10-16T14:26:58;3.03;;;1.20;;
7306;SDS011;3694;48.732;9.248;2022-10-16T14:29:25;1.30;;;1.10;;
7306;SDS011;3694;48.732;9.248;2022-10-16T14:31:59;4.27;;;1.37;;
7306;SDS011;3694;48.732;9.248;2022-10-16T14:34:30;2.60;;;1.40;;
7306;SDS011;3694;48.732;9.248;2022-10-16T14:37:13;2.90;;;1.20;;
7306;SDS011;3694;48.732;9.248;2022-10-16T14:39:49;2.83;;;1.10;;
7306;SDS011;3694;48.732;9.248;2022-10-16T14:42:19;3.77;;;1.57;;
7306;SDS011;3694;48.732;9.248;2022-10-16T14:44:49;4.00;;;1.30;;
7306;SDS011;3694;48.732;9.248;2022-10-16T14:47:19;2.77;;;1.20;;
7306;SDS011;3694;48.732;9.248;2022-10-16T14:49:49;1.60;;;1.20;;
7306;SDS011;3694;48.732;9.248;2022-10-16T14:52:15;1.73;;;1.43;;
7306;SDS011;3694;48.732;9.248;2022-10-16T14:54:41;4.40;;;1.27;;
7306;SDS011;3694;48.732;9.248;2022-10-16T14:57:15;3.60;;;1.50;;
7306;SDS011;3694;48.732;9.248;2022-10-16T14:59:43;4.83;;;2.57;;
7306;SDS011;3694;48.732;9.248;2022-10-16T15:02:29;2.47;;;1.90;;
7306;SDS011;3694;48.732;9.248;2022-10-16T15:04:56;3.50;;;2.20;;
7306;SDS011;3694;48.732;9.248;2022-10-16T15:07:23;13.17;;;6.57;;
7306;SDS011;3694;48.732;9.248;2022-10-16T15:09:49;10.00;;;5.73;;
7306;SDS011;3694;48.732;9.248;2022-10-16T15:12:15;9.87;;;5.03;;
7306;SDS011;3694;48.732;9.248;2022-10-16T15:14:41;8.77;;;4.93;;
7306;SDS011;3694;48.732;9.248;2022-10-16T15:17:10;8.93;;;4.50;;
7306;SDS011;3694;48.732;9.248;2022-10-16T15:19:36;4.47;;;2.60;;
7306;SDS011;3694;48.732;9.248;2022-10-16T15:22:02;5.17;;;2.50;;
7306;SDS011;3694;48.732;9.248;2022-10-16T15:24:27;2.13;;;1.73;;
7306;SDS011;3694;48.732;9.248;2022-10-16T15:26:53;3.20;;;1.77;;
7306;SDS011;3694;48.732;9.248;2022-10-16T15:29:18;2.43;;;1.70;;
7306;SDS011;3694;48.732;9.248;2022-10-16T15:31:44;2.97;;;1.60;;
7306;SDS011;3694;48.732;9.248;2022-10-16T15:34:12;1.80;;;1.50;;
7306;SDS011;3694;48.732;9.248;2022-10-16T15:36:38;4.97;;;1.50;;
7306;SDS011;3694;48.732;9.248;2022-10-16T15:39:04;2.80;;;1.40;;
7306;SDS011;3694;48.732;9.248;2022-10-16T15:41:35;3.13;;;1.70;;
7306;SDS011;3694;48.732;9.248;2022-10-16T15:44:01;1.97;;;1.50;;
7306;SDS011;3694;48.732;9.248;2022-10-16T15:46:26;2.03;;;1.70;;
7306;SDS011;3694;48.732;9.248;2022-10-16T15:48:56;2.90;;;1.87;;
7306;SDS011;3694;48.732;9.248;2022-10-16T15:51:22;3.67;;;2.40;;
7306;SDS011;3694;48.732;9.248;2022-10-16T15:53:49;2.40;;;2.20;;
7306;SDS011;3694;48.732;9.248;2022-10-16T15:56:15;4.73;;;2.30;;
7306;SDS011;3694;48.732;9.248;2022-10-16T15:58:41;2.90;;;2.50;;
7306;SDS011;3694;48.732;9.248;2022-10-16T16:01:08;3.77;;;3.23;;
7306;SDS011;3694;48.732;9.248;2022-10-16T16:03:34;7.00;;;2.30;;
7306;SDS011;3694;48.732;9.248;2022-10-16T16:06:07;5.57;;;2.43;;
7306;SDS011;3694;48.732;9.248;2022-10-16T16:08:34;2.83;;;2.30;;
7306;SDS011;3694;48.732;9.248;2022-10-16T16:11:08;3.53;;;2.40;;
7306;SDS011;3694;48.732;9.248;2022-10-16T16:13:35;3.90;;;2.03;;
7306;SDS011;3694;48.732;9.248;2022-10-16T16:16:05;2.60;;;1.70;;
7306;SDS011;3694;48.732;9.248;2022-10-16T16:18:32;4.53;;;1.90;;
7306;SDS011;3694;48.732;9.248;2022-10-16T16:20:58;3.37;;;2.00;;
7306;SDS011;3694;48.732;9.248;2022-10-16T16:23:23;2.90;;;2.00;;
7306;SDS011;3694;48.732;9.248;2022-10-16T16:26:05;1.97;;;1.87;;
7306;SDS011;3694;48.732;9.248;2022-10-16T16:28:34;3.63;;;2.47;;
7306;SDS011;3694;48.732;9.248;2022-10-16T16:31:01;4.63;;;2.87;;
7306;SDS011;3694;48.732;9.248;2022-10-16T16:33:27;8.03;;;3.20;;
7306;SDS011;3694;48.732;9.248;2022-10-16T16:35:56;6.50;;;2.60;;
7306;SDS011;3694;48.732;9.248;2022-10-16T16:38:26;5.23;;;3.40;;
7306;SDS011;3694;48.732;9.248;2022-10-16T16:40:52;5.90;;;4.00;;
7306;SDS011;3694;48.732;9.248;2022-10-16T16:43:18;6.73;;;3.90;;
7306;SDS011;3694;48.732;9.248;2022-10-16T16:45:47;4.83;;;3.80;;
7306;SDS011;3694;48.732;9.248;2022-10-16T16:48:12;7.90;;;4.20;;
7306;SDS011;3694;48.732;9.248;2022-10-16T16:50:38;7.30;;;4.67;;
7306;SDS011;3694;48.732;9.248;2022-10-16T16:53:03;7.77;;;5.27;;
7306;SDS011;3694;48.732;9.248;2022-10-16T16:55:29;5.80;;;5.23;;
7306;SDS011;3694;48.732;9.248;2022-10-16T16:57:54;8.07;;;5.33;;
7306;SDS011;3694;48.732;9.248;2022-10-16T17:00:21;6.37;;;4.30;;
7306;SDS011;3694;48.732;9.248;2022-10-16T17:02:50;6.13;;;4.33;;
7306;SDS011;3694;48.732;9.248;2022-10-16T17:05:16;6.00;;;4.10;;
7306;SDS011;3694;48.732;9.248;2022-10-16T17:07:43;6.20;;;4.47;;
7306;SDS011;3694;48.732;9.248;2022-10-16T17:10:09;6.03;;;4.30;;